sensor_id;sensor_type;location;lat;lon;timestamp;temperature;humidity
32640;DHT22;19049;52.524;11.468;2023-08-06T00:00:42;18.60;99.90
32640;DHT22;19049;52.524;11.468;2023-08-06T00:03:08;17.60;99.90
32640;DHT22;19049;52.524;11.468;2023-08-06T00:05:34;18.30;99.90
32640;DHT22;19049;52.524;11.468;2023-08-06T00:08:00;17.90;99.90
32640;DHT22;19049;52.524;11.468;2023-08-06T00:12:51;18.00;99.90
32640;DHT22;19049;52.524;11.468;2023-08-06T00:15:17;17.50;99.90
32640;DHT22;19049;52.524;11.468;2023-08-06T00:17:43;18.00;99.90
32640;DHT22;19049;52.524;11.468;2023-08-06T00:20:08;18.20;99.90
32640;DHT22;19049;52.524;11.468;2023-08-06T00:22:38;17.60;99.90
32640;DHT22;19049;52.524;11.468;2023-08-06T00:25:05;18.30;99.90
32640;DHT22;19049;52.524;11.468;2023-08-06T00:29:58;18.40;99.90
32640;DHT22;19049;52.524;11.468;2023-08-06T00:37:16;17.50;99.90
32640;DHT22;19049;52.524;11.468;2023-08-06T00:39:42;18.00;99.90
32640;DHT22;19049;52.524;11.468;2023-08-06T00:44:35;18.40;99.90
32640;DHT22;19049;52.524;11.468;2023-08-06T00:47:01;18.00;99.90
32640;DHT22;19049;52.524;11.468;2023-08-06T00:49:27;18.10;99.90
32640;DHT22;19049;52.524;11.468;2023-08-06T00:51:53;18.40;99.90
32640;DHT22;19049;52.524;11.468;2023-08-06T00:54:19;18.50;99.90
32640;DHT22;19049;52.524;11.468;2023-08-06T00:56:45;17.50;99.90
32640;DHT22;19049;52.524;11.468;2023-08-06T01:01:38;17.60;99.90
32640;DHT22;19049;52.524;11.468;2023-08-06T01:04:04;17.00;99.90
32640;DHT22;19049;52.524;11.468;2023-08-06T01:09:27;16.90;99.90
32640;DHT22;19049;52.524;11.468;2023-08-06T01:15:11;17.60;99.90
32640;DHT22;19049;52.524;11.468;2023-08-06T01:17:39;17.70;99.90
32640;DHT22;19049;52.524;11.468;2023-08-06T01:20:06;18.60;99.90
32640;DHT22;19049;52.524;11.468;2023-08-06T01:22:31;18.20;99.90
32640;DHT22;19049;52.524;11.468;2023-08-06T01:24:57;17.50;99.90
32640;DHT22;19049;52.524;11.468;2023-08-06T01:27:38;17.60;99.90
32640;DHT22;19049;52.524;11.468;2023-08-06T01:30:18;17.20;99.90
32640;DHT22;19049;52.524;11.468;2023-08-06T01:32:49;17.70;99.90
32640;DHT22;19049;52.524;11.468;2023-08-06T01:35:17;17.50;99.90
32640;DHT22;19049;52.524;11.468;2023-08-06T01:37:43;18.00;99.90
32640;DHT22;19049;52.524;11.468;2023-08-06T01:40:13;17.20;99.90
32640;DHT22;19049;52.524;11.468;2023-08-06T01:42:39;17.60;99.90
32640;DHT22;19049;52.524;11.468;2023-08-06T01:45:08;17.30;99.90
32640;DHT22;19049;52.524;11.468;2023-08-06T01:47:35;17.60;99.90
32640;DHT22;19049;52.524;11.468;2023-08-06T01:50:01;17.90;99.90
32640;DHT22;19049;52.524;11.468;2023-08-06T01:52:27;17.20;99.90
32640;DHT22;19049;52.524;11.468;2023-08-06T01:57:19;17.80;99.90
32640;DHT22;19049;52.524;11.468;2023-08-06T01:59:44;17.60;99.90
32640;DHT22;19049;52.524;11.468;2023-08-06T02:07:02;17.50;99.90
32640;DHT22;19049;52.524;11.468;2023-08-06T02:11:54;17.40;99.90
32640;DHT22;19049;52.524;11.468;2023-08-06T02:16:45;16.30;99.90
32640;DHT22;19049;52.524;11.468;2023-08-06T02:19:11;17.50;99.90
32640;DHT22;19049;52.524;11.468;2023-08-06T02:21:37;17.00;99.90
32640;DHT22;19049;52.524;11.468;2023-08-06T02:24:03;16.70;99.90
32640;DHT22;19049;52.524;11.468;2023-08-06T02:28:54;16.10;99.90
32640;DHT22;19049;52.524;11.468;2023-08-06T02:31:20;16.20;99.90
32640;DHT22;19049;52.524;11.468;2023-08-06T02:38:38;16.70;99.90
32640;DHT22;19049;52.524;11.468;2023-08-06T02:43:30;16.90;99.90
32640;DHT22;19049;52.524;11.468;2023-08-06T02:45:59;17.30;99.90
32640;DHT22;19049;52.524;11.468;2023-08-06T02:48:25;17.20;99.90
32640;DHT22;19049;52.524;11.468;2023-08-06T02:50:51;16.50;99.90
32640;DHT22;19049;52.524;11.468;2023-08-06T02:55:48;17.00;99.90
32640;DHT22;19049;52.524;11.468;2023-08-06T02:58:15;17.40;99.90
32640;DHT22;19049;52.524;11.468;2023-08-06T03:00:41;17.40;99.90
32640;DHT22;19049;52.524;11.468;2023-08-06T03:05:33;17.30;99.90
32640;DHT22;19049;52.524;11.468;2023-08-06T03:07:59;16.70;99.90
32640;DHT22;19049;52.524;11.468;2023-08-06T03:10:24;17.20;99.90
32640;DHT22;19049;52.524;11.468;2023-08-06T03:22:36;17.10;99.90
32640;DHT22;19049;52.524;11.468;2023-08-06T03:25:02;16.30;99.90
32640;DHT22;19049;52.524;11.468;2023-08-06T03:29:54;17.30;99.90
32640;DHT22;19049;52.524;11.468;2023-08-06T03:34:46;17.10;99.90
32640;DHT22;19049;52.524;11.468;2023-08-06T03:37:12;16.00;99.90
32640;DHT22;19049;52.524;11.468;2023-08-06T03:39:38;16.90;99.90
32640;DHT22;19049;52.524;11.468;2023-08-06T03:42:03;17.10;99.90
32640;DHT22;19049;52.524;11.468;2023-08-06T03:44:29;17.70;99.90
32640;DHT22;19049;52.524;11.468;2023-08-06T03:46:56;16.80;99.90
32640;DHT22;19049;52.524;11.468;2023-08-06T03:56:39;15.80;99.90
32640;DHT22;19049;52.524;11.468;2023-08-06T04:01:31;17.10;99.90
32640;DHT22;19049;52.524;11.468;2023-08-06T04:03:57;17.40;99.90
32640;DHT22;19049;52.524;11.468;2023-08-06T04:08:48;17.20;99.90
32640;DHT22;19049;52.524;11.468;2023-08-06T04:13:43;15.90;99.90
32640;DHT22;19049;52.524;11.468;2023-08-06T04:18:35;17.20;99.90
32640;DHT22;19049;52.524;11.468;2023-08-06T04:21:01;17.00;99.90
32640;DHT22;19049;52.524;11.468;2023-08-06T04:23:27;16.70;99.90
32640;DHT22;19049;52.524;11.468;2023-08-06T04:25:56;17.20;99.90
32640;DHT22;19049;52.524;11.468;2023-08-06T04:28:22;17.60;99.90
32640;DHT22;19049;52.524;11.468;2023-08-06T04:30:48;17.50;99.90
32640;DHT22;19049;52.524;11.468;2023-08-06T04:40:34;16.90;99.90
32640;DHT22;19049;52.524;11.468;2023-08-06T04:45:26;17.70;99.90
32640;DHT22;19049;52.524;11.468;2023-08-06T04:47:51;16.60;99.90
32640;DHT22;19049;52.524;11.468;2023-08-06T04:52:43;17.60;99.90
32640;DHT22;19049;52.524;11.468;2023-08-06T04:57:35;17.50;99.90
32640;DHT22;19049;52.524;11.468;2023-08-06T05:00:00;17.80;99.90
32640;DHT22;19049;52.524;11.468;2023-08-06T05:02:26;17.10;99.90
32640;DHT22;19049;52.524;11.468;2023-08-06T05:09:44;17.70;99.90
32640;DHT22;19049;52.524;11.468;2023-08-06T05:12:09;17.90;99.90
32640;DHT22;19049;52.524;11.468;2023-08-06T05:14:35;16.90;99.90
32640;DHT22;19049;52.524;11.468;2023-08-06T05:17:01;17.10;99.90
32640;DHT22;19049;52.524;11.468;2023-08-06T05:19:29;17.20;99.90
32640;DHT22;19049;52.524;11.468;2023-08-06T05:24:21;18.30;99.90
32640;DHT22;19049;52.524;11.468;2023-08-06T05:29:13;18.20;99.90
32640;DHT22;19049;52.524;11.468;2023-08-06T05:31:39;17.40;99.90
32640;DHT22;19049;52.524;11.468;2023-08-06T05:36:30;17.20;99.90
32640;DHT22;19049;52.524;11.468;2023-08-06T05:41:22;17.70;99.90
32640;DHT22;19049;52.524;11.468;2023-08-06T05:43:47;18.00;99.90
32640;DHT22;19049;52.524;11.468;2023-08-06T05:48:39;18.20;99.90
32640;DHT22;19049;52.524;11.468;2023-08-06T05:51:05;17.40;99.90
32640;DHT22;19049;52.524;11.468;2023-08-06T05:53:31;17.60;99.90
32640;DHT22;19049;52.524;11.468;2023-08-06T05:58:23;17.90;99.90
32640;DHT22;19049;52.524;11.468;2023-08-06T06:00:51;17.50;99.90
32640;DHT22;19049;52.524;11.468;2023-08-06T06:03:17;18.30;99.90
32640;DHT22;19049;52.524;11.468;2023-08-06T06:05:42;17.30;99.90
32640;DHT22;19049;52.524;11.468;2023-08-06T06:08:08;17.30;99.90
32640;DHT22;19049;52.524;11.468;2023-08-06T06:10:34;17.30;99.90
32640;DHT22;19049;52.524;11.468;2023-08-06T06:13:00;18.10;99.90
32640;DHT22;19049;52.524;11.468;2023-08-06T06:17:52;18.10;99.90
32640;DHT22;19049;52.524;11.468;2023-08-06T06:25:09;18.60;99.90
32640;DHT22;19049;52.524;11.468;2023-08-06T06:30:01;17.30;99.90
32640;DHT22;19049;52.524;11.468;2023-08-06T06:34:53;17.90;99.90
32640;DHT22;19049;52.524;11.468;2023-08-06T06:37:19;17.60;99.90
32640;DHT22;19049;52.524;11.468;2023-08-06T06:42:11;17.50;99.90
32640;DHT22;19049;52.524;11.468;2023-08-06T06:47:03;17.40;99.90
32640;DHT22;19049;52.524;11.468;2023-08-06T06:49:29;17.70;99.90
32640;DHT22;19049;52.524;11.468;2023-08-06T06:51:54;17.40;99.90
32640;DHT22;19049;52.524;11.468;2023-08-06T06:54:20;17.80;99.90
32640;DHT22;19049;52.524;11.468;2023-08-06T06:56:46;18.70;99.90
32640;DHT22;19049;52.524;11.468;2023-08-06T07:01:37;17.20;99.90
32640;DHT22;19049;52.524;11.468;2023-08-06T07:13:49;17.70;99.90
32640;DHT22;19049;52.524;11.468;2023-08-06T07:16:15;17.40;99.90
32640;DHT22;19049;52.524;11.468;2023-08-06T07:18:41;18.40;99.90
32640;DHT22;19049;52.524;11.468;2023-08-06T07:21:07;18.50;99.90
32640;DHT22;19049;52.524;11.468;2023-08-06T07:23:32;17.30;99.90
32640;DHT22;19049;52.524;11.468;2023-08-06T07:25:58;18.10;99.90
32640;DHT22;19049;52.524;11.468;2023-08-06T07:28:23;17.30;99.90
32640;DHT22;19049;52.524;11.468;2023-08-06T07:33:16;18.40;99.90
32640;DHT22;19049;52.524;11.468;2023-08-06T07:40:36;18.30;99.90
32640;DHT22;19049;52.524;11.468;2023-08-06T07:45:33;17.80;99.90
32640;DHT22;19049;52.524;11.468;2023-08-06T07:52:51;18.40;99.90
32640;DHT22;19049;52.524;11.468;2023-08-06T07:57:42;18.50;99.90
32640;DHT22;19049;52.524;11.468;2023-08-06T08:00:08;18.10;99.90
32640;DHT22;19049;52.524;11.468;2023-08-06T08:05:01;18.20;99.90
32640;DHT22;19049;52.524;11.468;2023-08-06T08:14:47;17.40;99.90
32640;DHT22;19049;52.524;11.468;2023-08-06T08:19:40;18.70;99.90
32640;DHT22;19049;52.524;11.468;2023-08-06T08:22:06;18.20;99.90
32640;DHT22;19049;52.524;11.468;2023-08-06T08:34:16;18.90;99.90
32640;DHT22;19049;52.524;11.468;2023-08-06T08:36:42;18.80;99.90
32640;DHT22;19049;52.524;11.468;2023-08-06T08:39:08;19.00;99.90
32640;DHT22;19049;52.524;11.468;2023-08-06T08:41:36;19.20;99.90
32640;DHT22;19049;52.524;11.468;2023-08-06T08:44:02;19.30;99.90
32640;DHT22;19049;52.524;11.468;2023-08-06T08:46:31;19.50;99.90
32640;DHT22;19049;52.524;11.468;2023-08-06T08:48:59;19.60;99.90
32640;DHT22;19049;52.524;11.468;2023-08-06T08:51:27;19.80;99.90
32640;DHT22;19049;52.524;11.468;2023-08-06T08:53:53;19.80;99.90
32640;DHT22;19049;52.524;11.468;2023-08-06T08:56:21;19.70;99.90
32640;DHT22;19049;52.524;11.468;2023-08-06T08:58:47;20.00;99.90
32640;DHT22;19049;52.524;11.468;2023-08-06T09:01:15;20.10;99.90
32640;DHT22;19049;52.524;11.468;2023-08-06T09:03:41;20.10;99.90
32640;DHT22;19049;52.524;11.468;2023-08-06T09:06:08;19.70;99.90
32640;DHT22;19049;52.524;11.468;2023-08-06T09:08:45;20.20;99.90
32640;DHT22;19049;52.524;11.468;2023-08-06T09:11:12;20.30;99.90
32640;DHT22;19049;52.524;11.468;2023-08-06T09:13:38;21.10;99.90
32640;DHT22;19049;52.524;11.468;2023-08-06T09:20:57;20.40;99.90
32640;DHT22;19049;52.524;11.468;2023-08-06T09:23:31;20.50;99.90
32640;DHT22;19049;52.524;11.468;2023-08-06T09:25:57;20.70;99.90
32640;DHT22;19049;52.524;11.468;2023-08-06T09:28:23;21.00;99.90
32640;DHT22;19049;52.524;11.468;2023-08-06T09:30:52;20.60;99.90
32640;DHT22;19049;52.524;11.468;2023-08-06T09:33:22;21.00;99.90
32640;DHT22;19049;52.524;11.468;2023-08-06T09:40:40;20.90;99.90
32640;DHT22;19049;52.524;11.468;2023-08-06T09:43:06;20.70;99.90
32640;DHT22;19049;52.524;11.468;2023-08-06T09:45:35;20.80;99.90
32640;DHT22;19049;52.524;11.468;2023-08-06T09:48:06;20.40;99.90
32640;DHT22;19049;52.524;11.468;2023-08-06T09:50:34;21.70;99.90
32640;DHT22;19049;52.524;11.468;2023-08-06T09:53:04;20.90;99.90
32640;DHT22;19049;52.524;11.468;2023-08-06T09:57:58;21.10;99.90
32640;DHT22;19049;52.524;11.468;2023-08-06T10:00:23;20.60;99.90
32640;DHT22;19049;52.524;11.468;2023-08-06T10:02:49;20.80;99.90
32640;DHT22;19049;52.524;11.468;2023-08-06T10:07:44;21.00;99.90
32640;DHT22;19049;52.524;11.468;2023-08-06T10:10:10;21.60;99.90
32640;DHT22;19049;52.524;11.468;2023-08-06T10:12:42;21.50;99.90
32640;DHT22;19049;52.524;11.468;2023-08-06T10:15:14;22.10;99.90
32640;DHT22;19049;52.524;11.468;2023-08-06T10:17:42;21.80;99.90
32640;DHT22;19049;52.524;11.468;2023-08-06T10:20:09;22.00;99.90
32640;DHT22;19049;52.524;11.468;2023-08-06T10:22:35;22.40;99.90
32640;DHT22;19049;52.524;11.468;2023-08-06T10:25:02;21.70;99.90
32640;DHT22;19049;52.524;11.468;2023-08-06T10:27:52;22.50;99.90
32640;DHT22;19049;52.524;11.468;2023-08-06T10:30:30;22.20;99.90
32640;DHT22;19049;52.524;11.468;2023-08-06T10:32:57;22.30;99.90
32640;DHT22;19049;52.524;11.468;2023-08-06T10:40:38;22.60;99.90
32640;DHT22;19049;52.524;11.468;2023-08-06T10:43:05;22.60;99.90
32640;DHT22;19049;52.524;11.468;2023-08-06T10:45:36;22.80;99.90
32640;DHT22;19049;52.524;11.468;2023-08-06T10:48:03;22.90;99.90
32640;DHT22;19049;52.524;11.468;2023-08-06T10:50:29;22.90;99.90
32640;DHT22;19049;52.524;11.468;2023-08-06T10:52:56;22.90;99.90
32640;DHT22;19049;52.524;11.468;2023-08-06T10:55:26;22.90;99.90
32640;DHT22;19049;52.524;11.468;2023-08-06T10:57:53;22.80;99.90
32640;DHT22;19049;52.524;11.468;2023-08-06T11:00:23;23.00;99.90
32640;DHT22;19049;52.524;11.468;2023-08-06T11:02:50;22.90;99.90
32640;DHT22;19049;52.524;11.468;2023-08-06T11:05:16;22.80;99.90
32640;DHT22;19049;52.524;11.468;2023-08-06T11:07:43;22.80;99.90
32640;DHT22;19049;52.524;11.468;2023-08-06T11:10:11;22.90;99.90
32640;DHT22;19049;52.524;11.468;2023-08-06T11:12:37;23.00;99.90
32640;DHT22;19049;52.524;11.468;2023-08-06T11:15:03;23.10;99.90
32640;DHT22;19049;52.524;11.468;2023-08-06T11:17:31;23.10;99.90
32640;DHT22;19049;52.524;11.468;2023-08-06T11:20:04;23.00;99.90
32640;DHT22;19049;52.524;11.468;2023-08-06T11:22:30;23.10;99.90
32640;DHT22;19049;52.524;11.468;2023-08-06T11:24:56;22.90;99.90
32640;DHT22;19049;52.524;11.468;2023-08-06T11:27:22;23.20;99.90
32640;DHT22;19049;52.524;11.468;2023-08-06T11:29:48;23.10;99.90
32640;DHT22;19049;52.524;11.468;2023-08-06T11:32:13;23.10;99.90
32640;DHT22;19049;52.524;11.468;2023-08-06T11:34:40;23.00;99.90
32640;DHT22;19049;52.524;11.468;2023-08-06T11:37:06;23.10;99.90
32640;DHT22;19049;52.524;11.468;2023-08-06T11:39:33;23.10;99.90
32640;DHT22;19049;52.524;11.468;2023-08-06T11:41:59;23.00;99.90
32640;DHT22;19049;52.524;11.468;2023-08-06T11:44:32;22.90;99.90
32640;DHT22;19049;52.524;11.468;2023-08-06T11:47:04;22.80;99.90
32640;DHT22;19049;52.524;11.468;2023-08-06T11:49:47;22.80;99.90
32640;DHT22;19049;52.524;11.468;2023-08-06T11:52:21;22.80;99.90
32640;DHT22;19049;52.524;11.468;2023-08-06T11:55:02;22.80;99.90
32640;DHT22;19049;52.524;11.468;2023-08-06T11:57:30;22.80;99.90
32640;DHT22;19049;52.524;11.468;2023-08-06T12:00:04;21.30;99.90
32640;DHT22;19049;52.524;11.468;2023-08-06T12:02:31;22.70;99.90
32640;DHT22;19049;52.524;11.468;2023-08-06T12:05:03;22.60;99.90
32640;DHT22;19049;52.524;11.468;2023-08-06T12:07:33;22.70;99.90
32640;DHT22;19049;52.524;11.468;2023-08-06T12:10:01;22.60;99.90
32640;DHT22;19049;52.524;11.468;2023-08-06T12:12:27;22.40;99.90
32640;DHT22;19049;52.524;11.468;2023-08-06T12:14:54;22.40;99.90
32640;DHT22;19049;52.524;11.468;2023-08-06T12:17:20;22.40;99.90
32640;DHT22;19049;52.524;11.468;2023-08-06T12:19:46;22.30;99.90
32640;DHT22;19049;52.524;11.468;2023-08-06T12:22:13;22.60;99.90
32640;DHT22;19049;52.524;11.468;2023-08-06T12:24:43;22.50;99.90
32640;DHT22;19049;52.524;11.468;2023-08-06T12:27:09;22.50;99.90
32640;DHT22;19049;52.524;11.468;2023-08-06T12:29:36;22.60;99.90
32640;DHT22;19049;52.524;11.468;2023-08-06T12:32:03;22.50;99.90
32640;DHT22;19049;52.524;11.468;2023-08-06T12:34:29;22.50;99.90
32640;DHT22;19049;52.524;11.468;2023-08-06T12:36:54;22.50;99.90
32640;DHT22;19049;52.524;11.468;2023-08-06T12:39:20;22.50;99.90
32640;DHT22;19049;52.524;11.468;2023-08-06T12:41:46;22.50;99.90
32640;DHT22;19049;52.524;11.468;2023-08-06T12:44:15;22.50;99.90
32640;DHT22;19049;52.524;11.468;2023-08-06T12:46:40;22.60;99.90
32640;DHT22;19049;52.524;11.468;2023-08-06T12:49:06;22.60;99.90
32640;DHT22;19049;52.524;11.468;2023-08-06T12:51:32;22.50;99.90
32640;DHT22;19049;52.524;11.468;2023-08-06T12:53:59;22.60;99.90
32640;DHT22;19049;52.524;11.468;2023-08-06T12:56:25;22.70;99.90
32640;DHT22;19049;52.524;11.468;2023-08-06T12:58:50;22.60;99.90
32640;DHT22;19049;52.524;11.468;2023-08-06T13:01:16;22.60;99.90
32640;DHT22;19049;52.524;11.468;2023-08-06T13:03:41;22.60;99.90
32640;DHT22;19049;52.524;11.468;2023-08-06T13:06:07;22.50;99.90
32640;DHT22;19049;52.524;11.468;2023-08-06T13:08:35;22.70;99.90
32640;DHT22;19049;52.524;11.468;2023-08-06T13:11:01;22.50;99.90
32640;DHT22;19049;52.524;11.468;2023-08-06T13:13:27;22.50;99.90
32640;DHT22;19049;52.524;11.468;2023-08-06T13:15:52;22.50;99.90
32640;DHT22;19049;52.524;11.468;2023-08-06T13:18:18;22.50;99.90
32640;DHT22;19049;52.524;11.468;2023-08-06T13:20:44;22.50;99.90
32640;DHT22;19049;52.524;11.468;2023-08-06T13:23:09;22.30;99.90
32640;DHT22;19049;52.524;11.468;2023-08-06T13:25:35;22.60;99.90
32640;DHT22;19049;52.524;11.468;2023-08-06T13:28:05;22.60;99.90
32640;DHT22;19049;52.524;11.468;2023-08-06T13:30:31;22.60;99.90
32640;DHT22;19049;52.524;11.468;2023-08-06T13:32:57;22.60;99.90
32640;DHT22;19049;52.524;11.468;2023-08-06T13:35:23;22.40;99.90
32640;DHT22;19049;52.524;11.468;2023-08-06T13:37:49;22.50;99.90
32640;DHT22;19049;52.524;11.468;2023-08-06T13:40:15;22.50;99.90
32640;DHT22;19049;52.524;11.468;2023-08-06T13:42:40;22.50;99.90
32640;DHT22;19049;52.524;11.468;2023-08-06T13:45:07;22.60;99.90
32640;DHT22;19049;52.524;11.468;2023-08-06T13:47:33;22.50;99.90
32640;DHT22;19049;52.524;11.468;2023-08-06T13:49:58;22.60;99.90
32640;DHT22;19049;52.524;11.468;2023-08-06T13:52:26;22.50;99.90
32640;DHT22;19049;52.524;11.468;2023-08-06T13:54:52;22.60;99.90
32640;DHT22;19049;52.524;11.468;2023-08-06T13:57:17;22.50;99.90
32640;DHT22;19049;52.524;11.468;2023-08-06T13:59:43;22.50;99.90
32640;DHT22;19049;52.524;11.468;2023-08-06T14:02:09;22.40;99.90
32640;DHT22;19049;52.524;11.468;2023-08-06T14:04:35;22.50;99.90
32640;DHT22;19049;52.524;11.468;2023-08-06T14:07:03;22.40;99.90
32640;DHT22;19049;52.524;11.468;2023-08-06T14:09:28;22.60;99.90
32640;DHT22;19049;52.524;11.468;2023-08-06T14:11:54;22.40;99.90
32640;DHT22;19049;52.524;11.468;2023-08-06T14:14:20;22.50;99.90
32640;DHT22;19049;52.524;11.468;2023-08-06T14:16:51;22.60;99.90
32640;DHT22;19049;52.524;11.468;2023-08-06T14:19:17;22.60;99.90
32640;DHT22;19049;52.524;11.468;2023-08-06T14:21:43;22.60;99.90
32640;DHT22;19049;52.524;11.468;2023-08-06T14:24:09;22.70;99.90
32640;DHT22;19049;52.524;11.468;2023-08-06T14:26:34;22.60;99.90
32640;DHT22;19049;52.524;11.468;2023-08-06T14:29:01;22.70;99.90
32640;DHT22;19049;52.524;11.468;2023-08-06T14:31:26;22.70;99.90
32640;DHT22;19049;52.524;11.468;2023-08-06T14:33:52;22.80;99.90
32640;DHT22;19049;52.524;11.468;2023-08-06T14:36:18;22.90;99.90
32640;DHT22;19049;52.524;11.468;2023-08-06T14:38:44;22.80;99.90
32640;DHT22;19049;52.524;11.468;2023-08-06T14:41:09;22.80;99.90
32640;DHT22;19049;52.524;11.468;2023-08-06T14:43:35;23.10;99.90
32640;DHT22;19049;52.524;11.468;2023-08-06T14:46:01;22.40;99.90
32640;DHT22;19049;52.524;11.468;2023-08-06T14:48:26;22.60;99.90
32640;DHT22;19049;52.524;11.468;2023-08-06T14:50:53;23.30;99.90
32640;DHT22;19049;52.524;11.468;2023-08-06T14:53:19;22.80;99.90
32640;DHT22;19049;52.524;11.468;2023-08-06T14:58:10;22.60;99.90
32640;DHT22;19049;52.524;11.468;2023-08-06T15:00:36;22.70;99.90
32640;DHT22;19049;52.524;11.468;2023-08-06T15:03:02;22.50;99.90
32640;DHT22;19049;52.524;11.468;2023-08-06T15:10:20;21.90;99.90
32640;DHT22;19049;52.524;11.468;2023-08-06T15:12:45;23.10;99.90
32640;DHT22;19049;52.524;11.468;2023-08-06T15:17:37;22.70;99.90
32640;DHT22;19049;52.524;11.468;2023-08-06T15:20:04;23.00;99.90
32640;DHT22;19049;52.524;11.468;2023-08-06T15:22:30;22.40;99.90
32640;DHT22;19049;52.524;11.468;2023-08-06T15:25:00;22.40;99.90
32640;DHT22;19049;52.524;11.468;2023-08-06T15:27:26;22.30;99.90
32640;DHT22;19049;52.524;11.468;2023-08-06T15:29:52;22.40;99.90
32640;DHT22;19049;52.524;11.468;2023-08-06T15:32:17;22.50;99.90
32640;DHT22;19049;52.524;11.468;2023-08-06T15:34:43;22.30;99.90
32640;DHT22;19049;52.524;11.468;2023-08-06T15:37:09;22.50;99.90
32640;DHT22;19049;52.524;11.468;2023-08-06T15:39:34;22.40;99.90
32640;DHT22;19049;52.524;11.468;2023-08-06T15:42:00;22.30;99.90
32640;DHT22;19049;52.524;11.468;2023-08-06T15:44:26;22.40;99.90
32640;DHT22;19049;52.524;11.468;2023-08-06T15:46:51;22.30;99.90
32640;DHT22;19049;52.524;11.468;2023-08-06T15:49:17;22.10;99.90
32640;DHT22;19049;52.524;11.468;2023-08-06T15:51:42;22.10;99.90
32640;DHT22;19049;52.524;11.468;2023-08-06T15:54:09;22.10;99.90
32640;DHT22;19049;52.524;11.468;2023-08-06T15:56:34;22.00;99.90
32640;DHT22;19049;52.524;11.468;2023-08-06T15:59:21;22.00;99.90
32640;DHT22;19049;52.524;11.468;2023-08-06T16:01:46;21.90;99.90
32640;DHT22;19049;52.524;11.468;2023-08-06T16:04:12;21.90;99.90
32640;DHT22;19049;52.524;11.468;2023-08-06T16:06:37;21.90;99.90
32640;DHT22;19049;52.524;11.468;2023-08-06T16:09:03;21.80;99.90
32640;DHT22;19049;52.524;11.468;2023-08-06T16:11:29;21.80;99.90
32640;DHT22;19049;52.524;11.468;2023-08-06T16:26:04;20.80;99.90
32640;DHT22;19049;52.524;11.468;2023-08-06T16:40:41;21.60;99.90
32640;DHT22;19049;52.524;11.468;2023-08-06T16:43:07;21.20;99.90
32640;DHT22;19049;52.524;11.468;2023-08-06T16:45:36;21.20;99.90
32640;DHT22;19049;52.524;11.468;2023-08-06T16:48:04;21.10;99.90
32640;DHT22;19049;52.524;11.468;2023-08-06T16:55:22;21.30;99.90
32640;DHT22;19049;52.524;11.468;2023-08-06T16:57:48;20.80;99.90
32640;DHT22;19049;52.524;11.468;2023-08-06T17:00:14;21.90;99.90
32640;DHT22;19049;52.524;11.468;2023-08-06T17:02:39;21.00;99.90
32640;DHT22;19049;52.524;11.468;2023-08-06T17:05:05;21.00;99.90
32640;DHT22;19049;52.524;11.468;2023-08-06T17:07:31;21.00;99.90
32640;DHT22;19049;52.524;11.468;2023-08-06T17:14:51;21.30;99.90
32640;DHT22;19049;52.524;11.468;2023-08-06T17:19:43;20.30;99.90
32640;DHT22;19049;52.524;11.468;2023-08-06T17:22:09;20.60;99.90
32640;DHT22;19049;52.524;11.468;2023-08-06T17:29:27;20.90;99.90
32640;DHT22;19049;52.524;11.468;2023-08-06T17:31:54;20.40;99.90
32640;DHT22;19049;52.524;11.468;2023-08-06T17:36:45;20.30;99.90
32640;DHT22;19049;52.524;11.468;2023-08-06T17:44:03;20.40;99.90
32640;DHT22;19049;52.524;11.468;2023-08-06T17:46:29;19.50;99.90
32640;DHT22;19049;52.524;11.468;2023-08-06T17:48:54;19.60;99.90
32640;DHT22;19049;52.524;11.468;2023-08-06T17:51:22;20.10;99.90
32640;DHT22;19049;52.524;11.468;2023-08-06T17:53:48;19.40;99.90
32640;DHT22;19049;52.524;11.468;2023-08-06T17:58:41;19.70;99.90
32640;DHT22;19049;52.524;11.468;2023-08-06T18:01:07;20.60;99.90
32640;DHT22;19049;52.524;11.468;2023-08-06T18:03:33;19.50;99.90
32640;DHT22;19049;52.524;11.468;2023-08-06T18:05:59;20.20;99.90
32640;DHT22;19049;52.524;11.468;2023-08-06T18:10:52;19.60;99.90
32640;DHT22;19049;52.524;11.468;2023-08-06T18:13:18;19.80;99.90
32640;DHT22;19049;52.524;11.468;2023-08-06T18:15:43;19.90;99.90
32640;DHT22;19049;52.524;11.468;2023-08-06T18:18:09;19.40;99.90
32640;DHT22;19049;52.524;11.468;2023-08-06T18:20:35;19.50;99.90
32640;DHT22;19049;52.524;11.468;2023-08-06T18:23:01;19.50;99.90
32640;DHT22;19049;52.524;11.468;2023-08-06T18:25:27;19.50;99.90
32640;DHT22;19049;52.524;11.468;2023-08-06T18:27:53;19.40;99.90
32640;DHT22;19049;52.524;11.468;2023-08-06T18:30:19;19.40;99.90
32640;DHT22;19049;52.524;11.468;2023-08-06T18:32:45;19.40;99.90
32640;DHT22;19049;52.524;11.468;2023-08-06T18:35:12;19.40;99.90
32640;DHT22;19049;52.524;11.468;2023-08-06T18:37:37;19.30;99.90
32640;DHT22;19049;52.524;11.468;2023-08-06T18:40:08;19.30;99.90
32640;DHT22;19049;52.524;11.468;2023-08-06T18:42:34;19.20;99.90
32640;DHT22;19049;52.524;11.468;2023-08-06T18:45:00;19.70;99.90
32640;DHT22;19049;52.524;11.468;2023-08-06T18:47:27;19.10;99.90
32640;DHT22;19049;52.524;11.468;2023-08-06T18:49:52;19.50;99.90
32640;DHT22;19049;52.524;11.468;2023-08-06T18:54:44;19.40;99.90
32640;DHT22;19049;52.524;11.468;2023-08-06T18:59:36;18.20;99.90
32640;DHT22;19049;52.524;11.468;2023-08-06T19:06:54;18.10;99.90
32640;DHT22;19049;52.524;11.468;2023-08-06T19:09:20;18.90;99.90
32640;DHT22;19049;52.524;11.468;2023-08-06T19:11:47;17.90;99.90
32640;DHT22;19049;52.524;11.468;2023-08-06T19:14:12;19.30;99.90
32640;DHT22;19049;52.524;11.468;2023-08-06T19:16:38;18.20;99.90
32640;DHT22;19049;52.524;11.468;2023-08-06T19:19:12;18.20;99.90
32640;DHT22;19049;52.524;11.468;2023-08-06T19:28:55;18.80;99.90
32640;DHT22;19049;52.524;11.468;2023-08-06T19:33:47;18.60;99.90
32640;DHT22;19049;52.524;11.468;2023-08-06T19:36:13;18.80;99.90
32640;DHT22;19049;52.524;11.468;2023-08-06T19:38:41;18.50;99.90
32640;DHT22;19049;52.524;11.468;2023-08-06T19:41:08;19.20;99.90
32640;DHT22;19049;52.524;11.468;2023-08-06T19:43:37;18.50;99.90
32640;DHT22;19049;52.524;11.468;2023-08-06T19:46:03;18.80;99.90
32640;DHT22;19049;52.524;11.468;2023-08-06T19:48:30;19.20;99.90
32640;DHT22;19049;52.524;11.468;2023-08-06T19:50:58;18.90;99.90
32640;DHT22;19049;52.524;11.468;2023-08-06T19:53:27;19.00;99.90
32640;DHT22;19049;52.524;11.468;2023-08-06T19:55:56;19.20;99.90